West Hempstead, New York
Current Conditions -  °F | °C
As of 8:51 AM on Thursday 18 Dec 2014 (Local Time) from KJFK Reporting Station
Broken Clouds Broken Clouds  
Wind Chill: 32°   Ceiling: 4200
Heat Index: 40°   Visibility: 10mi
Dew Point: 21°   Wind: 14mph
Humidity: 47%   Direction: 310°NW
Pressure: 29.98"   Gusts: 31mph
Location:  40.7°N, 73.65°W
Report Text: KJFK 181351Z 31012G27KT 10SM BKN042 BKN110 04/M06 A2998 RMK AO2 PK WND 31027/1342 SLP153 T00441061
Loading
Personal Weather Stations






























Interactive Weather Map New forecast layout! Learn more

10-Day Weather Forecast

Advertisements
Track Severe Weather on mobile